Terminal Aerodrome Forecast
Issued by NWS

Home | Current Version | Previous Version | Text Only | Print | Product List | Glossary Off
Versions: 1 2 3 4 5 6 7 8 9 10 11 12 13 14 15 16 17 18

000
FTUS43 KGRB 172300
TAFAUW
TAF
KAUW 172328Z 1800/1824 30010KT P6SM OVC025
      TEMPO 1803/1807 SCT025
     FM180700 35003KT P6SM SCT025
     FM181800 03003KT P6SM BKN250=

USA.gov is the U.S. government's official web portal to all federal, state and local government web resources and services.